This is the latest recevied weather packets stored in our database for station/object KK6LZB. If no packets are shown the sender has not sent any weather packets the latest 10 day(s).
| Time | Temp. | Humidity | Pressure | Rain* | Wind** | Luminosity | Snow |
|---|---|---|---|---|---|---|---|
| 1778027348 | 18.89° C | 63% | 1016.4 hPa | 0 mm | - | 196 W/m² | - |
| 1778027044 | 19.44° C | 63% | 1016.4 hPa | 0 mm | - | 209 W/m² | - |
| 1778026739 | 18.33° C | 64% | 1016.6 hPa | 0 mm | - | 221 W/m² | - |
| 1778026437 | 20° C | 63% | 1016.7 hPa | 0 mm | - | 237 W/m² | - |
| 1778026134 | 19.44° C | 63% | 1016.6 hPa | 0 mm | - | 250 W/m² | - |
| 1778025832 | 19.44° C | 63% | 1016.6 hPa | 0 mm | - | 266 W/m² | - |
| 1778025528 | 18.89° C | 67% | 1016.6 hPa | 0 mm | - | 284 W/m² | - |
| 1778025226 | 17.78° C | 68% | 1016.6 hPa | 0 mm | - | 304 W/m² | - |
| 1778024922 | 18.33° C | 68% | 1016.4 hPa | 0 mm | - | 203 W/m² | - |
| 1778024620 | 18.33° C | 70% | 1016.4 hPa | 0 mm | - | 95 W/m² | - |
| 1778024317 | 17.22° C | 70% | 1016.6 hPa | 0 mm | - | 363 W/m² | - |
| 1778024015 | 17.78° C | 70% | 1016.6 hPa | 0 mm | - | 91 W/m² | - |
| 1778023712 | 18.89° C | 67% | 1016.5 hPa | 0 mm | - | 398 W/m² | - |
| 1778023410 | 18.33° C | 68% | 1016.6 hPa | 0 mm | - | 396 W/m² | - |
| 1778023106 | 18.89° C | 66% | 1016.6 hPa | 0 mm | - | 395 W/m² | - |
| 1778022804 | 18.89° C | 68% | 1016.6 hPa | 0 mm | - | 301 W/m² | - |
| 1778022502 | 18.89° C | 67% | 1016.5 hPa | 0 mm | - | 444 W/m² | - |
| 1778022199 | 18.89° C | 66% | 1016.4 hPa | 0 mm | - | 289 W/m² | - |
| 1778021895 | 18.89° C | 67% | 1016.6 hPa | 0 mm | - | 455 W/m² | - |
| 1778021593 | 18.89° C | 66% | 1016.7 hPa | 0 mm | - | 425 W/m² | - |
| 1778021288 | 18.33° C | 68% | 1016.8 hPa | 0 mm | - | 519 W/m² | - |
| 1778020986 | 18.89° C | 68% | 1016.5 hPa | 0 mm | - | 509 W/m² | - |
| 1778020683 | 19.44° C | 63% | 1016.7 hPa | 0 mm | - | 520 W/m² | - |
| 1778020380 | 20° C | 64% | 1016.7 hPa | 0 mm | - | 520 W/m² | - |
| 1778020075 | 20° C | 65% | 1016.7 hPa | 0 mm | - | 525 W/m² | - |
* Rain latest hour (hover to see other rain measurements)
** Current wind speed in m/s (hover to see current wind gust speed)